createdAt,value
2022-08-16T00:32:12.818Z,100957.78
2022-08-16T01:05:46.758Z,100951.28
2022-08-16T01:08:36.071Z,100951.91
2022-08-16T01:11:53.617Z,100953.59
2022-08-16T01:16:20.113Z,100950.44
2022-08-16T01:19:17.471Z,100950.69
2022-08-16T01:22:49.496Z,100942.38
2022-08-16T01:26:00.158Z,100943.88
2022-08-16T01:28:47.304Z,100950.31
2022-08-16T01:31:45.981Z,100951.53
2022-08-16T01:34:47.004Z,100949.38
2022-08-16T01:40:43.523Z,100939.66
2022-08-16T01:46:45.522Z,100951.22
2022-08-16T01:52:27.966Z,100943.47
2022-08-16T01:55:55.320Z,100942.31
2022-08-16T02:03:19.421Z,100938.22
2022-08-16T02:05:53.466Z,100940.00
2022-08-16T02:11:53.210Z,100940.91
2022-08-16T02:14:26.675Z,100941.28
2022-08-16T02:20:45.664Z,100944.31
2022-08-16T02:23:50.921Z,100950.97
2022-08-16T02:30:50.833Z,100961.78
2022-08-16T02:33:50.642Z,100958.44
2022-08-16T02:36:47.815Z,100953.22
2022-08-16T02:39:46.343Z,100954.78
2022-08-16T02:42:49.767Z,100960.88
2022-08-16T02:45:49.381Z,100960.59
2022-08-16T02:51:10.988Z,100966.56
2022-08-16T02:53:52.867Z,100967.91
2022-08-16T02:56:53.900Z,100967.09
2022-08-16T02:59:50.057Z,100960.88
2022-08-16T03:02:55.813Z,100960.00
2022-08-16T03:08:52.548Z,100959.53
2022-08-16T03:14:51.877Z,100958.38
2022-08-16T03:17:53.070Z,100952.63
2022-08-16T03:20:21.970Z,100966.31
2022-08-16T03:36:50.859Z,100964.09
2022-08-16T03:39:56.225Z,100965.41
2022-08-16T03:42:25.428Z,100964.22
2022-08-16T03:45:03.474Z,100959.16
2022-08-16T03:47:58.247Z,100965.72
2022-08-16T03:51:00.176Z,100968.94
2022-08-16T03:54:01.411Z,100966.56
2022-08-16T03:56:56.853Z,100969.78
2022-08-16T04:03:52.868Z,100972.72
2022-08-16T04:06:51.153Z,100973.38
2022-08-16T04:12:53.764Z,100980.03
2022-08-16T04:15:23.884Z,100980.03
2022-08-16T04:17:55.870Z,100976.94
2022-08-16T04:20:55.157Z,100982.84
2022-08-16T04:26:22.648Z,100981.94
2022-08-16T04:31:56.698Z,101001.84
2022-08-16T04:35:52.406Z,100988.81
2022-08-16T04:38:55.601Z,100990.47
2022-08-16T04:41:32.794Z,100998.03
2022-08-16T04:44:32.726Z,100999.19
2022-08-16T04:47:56.215Z,100997.81
2022-08-16T04:50:30.425Z,100998.47
2022-08-16T04:55:53.474Z,100999.63
2022-08-16T04:58:57.726Z,101014.41
2022-08-16T05:01:59.128Z,101013.72
2022-08-16T05:04:52.001Z,101011.88
2022-08-16T05:10:26.708Z,101009.69
2022-08-16T05:12:55.033Z,101009.50
2022-08-16T05:15:57.487Z,101009.50
2022-08-16T05:18:27.734Z,101011.78
2022-08-16T05:21:01.265Z,101014.81
2022-08-16T05:26:53.798Z,101017.19
2022-08-16T05:29:25.059Z,101016.66
2022-08-16T05:32:32.883Z,101024.06
2022-08-16T05:35:24.560Z,101027.91
2022-08-16T05:40:23.998Z,101021.56
2022-08-16T05:42:55.256Z,101023.75
2022-08-16T05:45:24.120Z,101022.88
2022-08-16T05:47:59.663Z,101019.81
2022-08-16T05:53:25.618Z,101024.09
2022-08-16T05:55:55.068Z,101027.09
2022-08-16T05:58:33.101Z,101021.00
2022-08-16T06:03:55.660Z,101021.91
2022-08-16T06:06:28.117Z,101017.09
2022-08-16T06:08:57.510Z,101023.47
2022-08-16T06:11:25.788Z,101017.56
2022-08-16T06:13:55.462Z,101012.59
2022-08-16T06:16:27.053Z,101012.91
2022-08-16T06:18:55.455Z,101015.06
2022-08-16T06:21:27.228Z,101019.88
2022-08-16T06:24:54.410Z,101021.88
2022-08-16T06:27:25.631Z,101019.19
2022-08-16T06:30:28.873Z,101020.47
2022-08-16T06:32:57.842Z,101016.84
2022-08-16T06:35:59.956Z,101011.91
2022-08-16T06:38:34.077Z,101016.31
2022-08-16T06:41:27.334Z,101019.47
2022-08-16T06:43:57.334Z,101013.81
2022-08-16T06:46:38.650Z,101010.72
2022-08-16T06:49:39.698Z,101018.53
2022-08-16T06:53:00.596Z,101018.38
2022-08-16T06:58:56.316Z,101017.41
2022-08-16T07:01:57.993Z,101015.28
2022-08-16T07:10:57.545Z,101012.19
2022-08-16T07:20:03.693Z,101012.63
2022-08-16T07:22:58.678Z,101017.00
2022-08-16T07:25:55.060Z,101012.75
2022-08-16T07:37:12.037Z,101018.69
2022-08-16T07:41:00.102Z,101020.69
2022-08-16T07:43:57.344Z,101017.41
2022-08-16T07:49:57.907Z,101015.16
2022-08-16T07:52:57.086Z,101017.28
2022-08-16T07:55:28.537Z,101010.63
2022-08-16T07:58:58.686Z,100995.63
2022-08-16T08:02:04.500Z,101008.72
2022-08-16T08:04:55.255Z,101004.63
2022-08-16T08:10:11.025Z,101007.84
2022-08-16T08:13:05.709Z,101010.53
2022-08-16T08:16:05.147Z,101011.69
2022-08-16T08:19:01.022Z,101015.09
2022-08-16T08:22:00.972Z,101015.75
2022-08-16T08:24:59.100Z,101015.47
2022-08-16T08:36:56.981Z,101015.03
2022-08-16T08:39:28.159Z,101006.28
2022-08-16T08:41:58.969Z,101000.59
2022-08-16T08:50:32.047Z,101003.88
2022-08-16T08:53:02.250Z,100995.09
2022-08-16T08:55:59.870Z,100992.13
2022-08-16T09:01:42.471Z,100995.38
2022-08-16T09:08:01.471Z,100988.72
2022-08-16T09:10:58.850Z,100978.53
2022-08-16T09:13:58.605Z,100983.34
2022-08-16T09:17:02.476Z,100983.72
2022-08-16T09:23:00.662Z,100985.56
2022-08-16T09:26:00.516Z,100985.00
2022-08-16T09:40:00.539Z,100992.03
2022-08-16T09:43:00.246Z,100984.06
2022-08-16T09:45:29.690Z,100990.00
2022-08-16T09:48:01.248Z,100990.00
2022-08-16T09:51:00.674Z,100978.16
2022-08-16T09:54:01.897Z,100977.44
2022-08-16T09:56:35.726Z,100975.59
2022-08-16T09:59:08.447Z,100982.94
2022-08-16T10:02:26.640Z,100976.72
2022-08-16T10:05:01.516Z,100988.00
2022-08-16T10:07:38.387Z,100987.38
2022-08-16T10:14:58.875Z,100991.63
2022-08-16T10:19:00.429Z,100984.84
2022-08-16T10:21:00.995Z,100984.28
2022-08-16T10:23:59.942Z,100975.75
2022-08-16T10:30:01.108Z,100978.31
2022-08-16T10:39:59.471Z,100978.38
2022-08-16T10:46:01.321Z,100978.38
2022-08-16T10:48:58.599Z,100977.50
2022-08-16T10:51:34.282Z,100977.78
2022-08-16T10:58:11.481Z,100975.69
2022-08-16T11:00:59.099Z,100972.16
2022-08-16T11:03:42.284Z,100963.81
2022-08-16T11:06:19.026Z,100960.66
2022-08-16T11:12:13.913Z,100977.47
2022-08-16T11:15:30.033Z,100973.09
2022-08-16T11:21:00.534Z,100973.94
2022-08-16T11:23:30.397Z,100967.72
2022-08-16T11:26:10.435Z,100973.53
2022-08-16T11:29:16.021Z,100970.28
2022-08-16T11:32:07.983Z,100970.81
2022-08-16T11:35:15.997Z,100958.66
2022-08-16T11:38:47.315Z,100965.59
2022-08-16T11:41:08.055Z,100968.41
2022-08-16T11:44:00.338Z,100962.44
2022-08-16T11:46:44.879Z,100967.94
2022-08-16T11:52:02.429Z,100963.75
2022-08-16T11:54:35.769Z,100966.56
2022-08-16T11:57:09.438Z,100965.13
2022-08-16T12:00:01.437Z,100959.50
2022-08-16T12:02:31.538Z,100953.72
2022-08-16T12:05:01.423Z,100953.94
2022-08-16T12:07:31.605Z,100960.72
2022-08-16T12:10:02.646Z,100963.97
2022-08-16T12:12:32.741Z,100950.97
2022-08-16T12:15:04.688Z,100957.97
2022-08-16T12:17:33.888Z,100960.34
2022-08-16T12:20:05.010Z,100958.31
2022-08-16T12:22:39.084Z,100966.75
2022-08-16T12:25:10.230Z,100969.22
2022-08-16T12:27:42.764Z,100972.13
2022-08-16T12:30:21.472Z,100974.69
2022-08-16T12:33:06.633Z,100978.16
2022-08-16T12:36:05.171Z,100969.53
2022-08-16T12:38:48.095Z,100977.69
2022-08-16T12:41:28.237Z,100981.59
2022-08-16T12:44:00.958Z,100984.06
2022-08-16T12:46:31.368Z,100994.25
2022-08-16T12:49:02.767Z,100992.53
2022-08-16T12:51:58.502Z,100994.16
2022-08-16T12:54:27.742Z,100994.16
2022-08-16T12:56:57.416Z,101001.56
2022-08-16T12:59:26.490Z,100999.63
2022-08-16T13:02:02.175Z,101006.91
2022-08-16T13:04:33.226Z,101008.63
2022-08-16T13:09:32.700Z,101023.22
2022-08-16T13:12:24.957Z,101015.66
2022-08-16T13:14:54.849Z,101024.47
2022-08-16T13:17:32.965Z,101017.91
2022-08-16T13:20:08.547Z,101027.28
2022-08-16T13:25:35.111Z,101034.22
2022-08-16T13:28:04.771Z,101032.13
2022-08-16T13:30:41.758Z,101038.19
2022-08-16T13:33:16.992Z,101040.72
2022-08-16T13:35:55.632Z,101045.13
2022-08-16T13:38:37.294Z,101046.47
2022-08-16T13:44:04.413Z,101045.84
2022-08-16T13:46:39.147Z,101048.91
2022-08-16T13:49:17.258Z,101045.13
2022-08-16T13:51:52.060Z,101048.41
2022-08-16T13:55:03.646Z,101051.44
2022-08-16T13:57:53.355Z,101055.09
2022-08-16T14:03:34.344Z,101053.84
2022-08-16T14:06:05.844Z,101055.34
2022-08-16T14:08:34.155Z,101050.69
2022-08-16T14:11:07.021Z,101057.13
2022-08-16T14:13:43.011Z,101042.38
2022-08-16T14:16:33.944Z,101054.09
2022-08-16T14:19:03.976Z,101053.56
2022-08-16T14:21:34.864Z,101050.97
2022-08-16T14:24:12.813Z,101049.09
2022-08-16T14:26:55.683Z,101048.06
2022-08-16T14:29:31.982Z,101040.94
2022-08-16T14:32:09.634Z,101051.03
2022-08-16T14:34:51.829Z,101054.28
2022-08-16T14:37:26.252Z,101052.91
2022-08-16T14:39:59.316Z,101059.88
2022-08-16T14:42:28.862Z,101060.72
2022-08-16T14:45:00.845Z,101060.13
2022-08-16T14:47:34.895Z,101076.44
2022-08-16T14:50:05.721Z,101081.09
2022-08-16T14:55:24.095Z,101085.88
2022-08-16T14:57:52.889Z,101082.06
2022-08-16T15:00:33.109Z,101083.66
2022-08-16T15:03:06.877Z,101088.59
2022-08-16T15:05:40.254Z,101085.34
2022-08-16T15:08:09.341Z,101095.25
2022-08-16T15:10:39.164Z,101092.78
2022-08-16T15:13:30.350Z,101097.06
2022-08-16T15:16:02.560Z,101088.09
2022-08-16T15:18:37.253Z,101087.16
2022-08-16T15:21:29.777Z,101090.59
2022-08-16T15:24:00.147Z,101102.97
2022-08-16T15:26:44.800Z,101096.75
2022-08-16T15:29:16.567Z,101091.31
2022-08-16T15:32:00.910Z,101090.22
2022-08-16T15:34:33.824Z,101094.34
2022-08-16T15:37:02.690Z,101096.78
2022-08-16T15:39:40.183Z,101093.25
2022-08-16T15:42:36.333Z,101088.03
2022-08-16T15:45:11.458Z,101100.03
2022-08-16T15:47:41.253Z,101095.22
2022-08-16T15:50:28.889Z,101092.84
2022-08-16T15:52:58.426Z,101098.34
2022-08-16T15:55:37.313Z,101083.28
2022-08-16T15:58:35.681Z,101083.94
2022-08-16T16:04:10.027Z,101081.69
2022-08-16T16:07:11.764Z,101071.97
2022-08-16T16:10:04.952Z,101066.22
2022-08-16T16:12:54.209Z,101067.84
2022-08-16T16:15:29.481Z,101067.63
2022-08-16T16:18:09.376Z,101064.03
2022-08-16T16:27:05.708Z,101059.69
2022-08-16T16:30:33.331Z,101066.91
2022-08-16T16:33:03.277Z,101056.88
2022-08-16T16:36:38.852Z,101060.91
2022-08-16T16:43:04.395Z,101061.53
2022-08-16T16:49:07.040Z,101061.47
2022-08-16T16:52:06.977Z,101057.44
2022-08-16T16:55:03.008Z,101053.06
2022-08-16T17:01:09.239Z,101050.59
2022-08-16T17:04:13.149Z,101052.41
2022-08-16T17:07:36.161Z,101056.78
2022-08-16T17:10:09.302Z,101054.16
2022-08-16T17:15:36.608Z,101053.06
2022-08-16T17:19:17.396Z,101054.06
2022-08-16T17:22:06.475Z,101057.22
2022-08-16T17:25:07.366Z,101052.94
2022-08-16T17:30:45.562Z,101062.94
2022-08-16T17:33:17.262Z,101056.78
2022-08-16T17:36:04.397Z,101053.00
2022-08-16T17:38:43.902Z,101053.84
2022-08-16T17:41:15.013Z,101044.19
2022-08-16T17:43:48.500Z,101040.63
2022-08-16T17:46:41.148Z,101038.75
2022-08-16T17:49:06.573Z,101045.41
2022-08-16T17:51:35.144Z,101040.78
2022-08-16T17:54:04.435Z,101035.25
2022-08-16T17:59:40.940Z,101047.06
2022-08-16T18:05:01.725Z,101033.63
2022-08-16T18:10:06.173Z,101035.72
2022-08-16T18:12:54.978Z,101031.09
2022-08-16T18:22:04.826Z,101020.50
2022-08-16T18:24:39.545Z,101019.94
2022-08-16T18:27:37.501Z,101027.03
2022-08-16T18:33:43.373Z,101015.72
2022-08-16T18:36:41.339Z,101013.00
2022-08-16T18:42:41.244Z,101007.72
2022-08-16T18:45:10.266Z,101004.56
2022-08-16T18:47:38.992Z,101009.03
2022-08-16T18:53:40.002Z,100991.59
2022-08-16T18:56:11.371Z,100982.19
2022-08-16T18:58:40.251Z,100979.50
2022-08-16T19:01:46.277Z,100978.00
2022-08-16T19:14:41.772Z,100966.84
2022-08-16T19:20:44.455Z,100979.00
2022-08-16T19:26:46.152Z,100974.59
2022-08-16T19:29:21.885Z,100977.88
2022-08-16T19:40:45.920Z,100977.44
2022-08-16T19:43:40.512Z,100970.63
2022-08-16T19:51:55.875Z,100979.75
2022-08-16T20:24:40.201Z,100908.50
2022-08-16T20:46:39.688Z,100886.66
2022-08-16T20:53:45.389Z,100886.69
2022-08-16T21:06:41.379Z,100871.53
2022-08-16T21:13:17.743Z,100866.59
2022-08-16T21:15:46.595Z,100867.72
2022-08-16T21:18:20.701Z,100860.47
2022-08-16T21:21:16.413Z,100854.84
2022-08-16T21:30:25.063Z,100847.09
2022-08-16T21:38:11.348Z,100835.56
2022-08-16T21:47:24.283Z,100814.13
2022-08-16T21:56:19.910Z,100803.78
2022-08-16T22:06:23.462Z,100804.94
2022-08-16T22:09:19.200Z,100803.47
2022-08-16T22:12:18.031Z,100810.25
2022-08-16T22:18:18.026Z,100795.81
2022-08-16T22:21:20.152Z,100799.88
2022-08-16T22:24:19.401Z,100797.00
2022-08-16T22:27:20.097Z,100794.97
2022-08-16T22:29:48.679Z,100788.47
2022-08-16T22:32:17.753Z,100792.84
2022-08-16T22:34:46.809Z,100781.31
2022-08-16T22:37:15.691Z,100785.28
2022-08-16T22:39:47.611Z,100785.28
2022-08-16T22:42:19.064Z,100782.09
2022-08-16T22:47:26.753Z,100771.41
2022-08-16T22:50:26.025Z,100773.72
2022-08-16T23:00:28.038Z,100763.06
2022-08-16T23:06:05.178Z,100764.00
2022-08-16T23:08:52.874Z,100763.38
2022-08-16T23:23:28.602Z,100751.91
2022-08-16T23:27:22.972Z,100746.84
2022-08-16T23:30:53.837Z,100739.72
